Time;durP1;ratioP1;P1;durP2;ratioP2;P2;SDS_P1;SDS_P2;PMS_P1;PMS_P2;Temp;Humidity;BMP_temperature;BMP_pressure;BME280_temperature;BME280_humidity;BME280_pressure;Samples;Min_cycle;Max_cycle;Signal;HPM_P1;HPM_P2
2023/02/03 00:00:38;;;;;;;31.75;13.07;;;;;;;0.50;67.06;99283.94;6019891;23;20026;-81
2023/02/03 00:03:04;;;;;;;29.77;11.75;;;;;;;0.38;67.03;99268.25;6071140;23;20051;-79
2023/02/03 00:05:30;;;;;;;31.38;12.95;;;;;;;0.51;66.84;99279.66;6073198;23;20029;-79
2023/02/03 00:07:57;;;;;;;27.15;12.68;;;;;;;0.66;66.71;99300.53;6044033;23;20023;-79
2023/02/03 00:10:23;;;;;;;29.88;12.75;;;;;;;0.56;66.46;99285.75;6069034;23;20023;-79
2023/02/03 00:12:51;;;;;;;30.88;13.02;;;;;;;0.47;67.26;99299.22;6069726;23;20022;-78
2023/02/03 00:15:18;;;;;;;34.45;13.13;;;;;;;0.32;67.25;99268.13;6043891;23;20551;-79
2023/02/03 00:17:44;;;;;;;32.83;13.35;;;;;;;0.32;67.58;99263.00;6043887;23;20101;-78
2023/02/03 00:20:11;;;;;;;30.02;13.18;;;;;;;0.56;67.59;99283.19;6067458;23;20544;-78
2023/02/03 00:22:37;;;;;;;33.10;13.73;;;;;;;0.62;67.13;99274.78;6020812;23;20477;-79
2023/02/03 00:25:03;;;;;;;26.75;10.57;;;;;;;0.66;66.64;99297.06;6065979;23;20027;-77
2023/02/03 00:27:30;;;;;;;32.78;13.85;;;;;;;0.59;67.16;99284.13;6067862;23;20019;-78
2023/02/03 00:29:57;;;;;;;28.63;12.57;;;;;;;0.58;67.05;99300.31;6019067;23;20109;-78
2023/02/03 00:32:23;;;;;;;27.75;11.93;;;;;;;0.33;66.40;99272.41;6044121;23;20014;-78
2023/02/03 00:34:49;;;;;;;29.73;12.40;;;;;;;0.25;67.46;99274.78;6041568;23;20033;-77
2023/02/03 00:37:15;;;;;;;29.63;12.63;;;;;;;0.23;67.12;99263.63;6018844;23;20101;-79
2023/02/03 00:39:41;;;;;;;30.13;12.10;;;;;;;0.48;67.22;99292.38;6067653;23;20461;-78
2023/02/03 00:42:07;;;;;;;26.95;12.20;;;;;;;0.24;67.71;99260.25;6042680;23;20094;-78
2023/02/03 00:44:33;;;;;;;37.17;14.75;;;;;;;0.38;67.51;99288.72;6067514;23;20101;-77
2023/02/03 00:46:59;;;;;;;30.08;13.18;;;;;;;0.40;67.59;99300.75;6075834;23;20449;-79
2023/02/03 00:49:25;;;;;;;33.50;12.80;;;;;;;0.21;67.18;99271.28;6045198;23;20013;-78
2023/02/03 00:51:52;;;;;;;32.75;13.48;;;;;;;0.21;67.45;99294.31;6010301;23;20357;-79
2023/02/03 00:54:20;;;;;;;32.10;13.23;;;;;;;0.16;68.25;99260.06;6043580;23;20078;-79
2023/02/03 00:56:46;;;;;;;31.42;12.63;;;;;;;0.39;67.94;99298.16;6044015;23;20555;-79
2023/02/03 00:59:12;;;;;;;34.22;14.05;;;;;;;0.38;67.61;99297.28;6067180;23;20073;-78
2023/02/03 01:01:38;;;;;;;33.53;13.65;;;;;;;0.43;67.26;99299.97;6043670;23;20022;-78
2023/02/03 01:04:05;;;;;;;32.70;13.75;;;;;;;0.48;67.63;99300.06;6068422;23;20110;-80
2023/02/03 01:06:33;;;;;;;31.33;12.73;;;;;;;0.27;67.60;99252.63;6043812;23;20029;-78
2023/02/03 01:09:03;;;;;;;30.90;13.05;;;;;;;0.45;67.48;99283.78;6066080;23;20022;-77
2023/02/03 01:11:29;;;;;;;32.72;13.40;;;;;;;0.44;67.28;99294.00;6020132;23;20019;-78
2023/02/03 01:13:58;;;;;;;31.85;12.48;;;;;;;0.32;66.80;99278.38;6043612;23;20453;-78
2023/02/03 01:16:24;;;;;;;36.05;13.57;;;;;;;0.28;66.85;99278.28;6019653;23;20026;-78
2023/02/03 01:18:50;;;;;;;31.35;12.95;;;;;;;0.29;67.06;99277.47;6068180;23;20070;-79
2023/02/03 01:21:24;;;;;;;30.92;13.18;;;;;;;0.39;68.15;99285.34;6069245;23;20026;-80
2023/02/03 01:23:52;;;;;;;31.35;13.13;;;;;;;0.37;67.63;99290.44;6042035;23;20019;-78
2023/02/03 01:26:20;;;;;;;27.65;12.07;;;;;;;0.32;67.53;99271.53;6066747;23;20046;-78
2023/02/03 01:28:54;;;;;;;27.75;12.43;;;;;;;0.32;67.75;99286.06;6067653;23;20449;-78
2023/02/03 01:31:28;;;;;;;31.25;12.88;;;;;;;0.31;67.40;99282.59;6067063;23;20098;-77
2023/02/03 01:33:55;;;;;;;34.42;13.55;;;;;;;0.33;67.74;99262.19;6041747;23;20018;-79
2023/02/03 01:36:24;;;;;;;31.48;13.23;;;;;;;0.41;68.25;99284.56;6019322;23;20109;-78
2023/02/03 01:38:51;;;;;;;30.80;12.13;;;;;;;0.39;67.75;99285.34;6042131;23;20101;-78
2023/02/03 01:41:20;;;;;;;29.88;12.40;;;;;;;0.44;68.22;99283.78;6067051;23;20026;-79
2023/02/03 01:43:48;;;;;;;31.88;13.45;;;;;;;0.44;67.73;99286.31;6042291;23;20022;-79
2023/02/03 01:46:26;;;;;;;31.45;12.15;;;;;;;0.44;67.56;99281.22;6067734;23;20033;-78
2023/02/03 01:49:05;;;;;;;29.90;12.15;;;;;;;0.34;67.31;99251.09;6042073;23;20102;-78
2023/02/03 01:51:31;;;;;;;32.10;13.13;;;;;;;0.47;67.83;99280.41;6018559;23;20015;-78
2023/02/03 01:53:58;;;;;;;30.13;12.20;;;;;;;0.43;67.32;99262.44;6068241;23;20029;-80
2023/02/03 01:56:31;;;;;;;31.17;13.65;;;;;;;0.54;67.87;99279.72;6042345;23;20022;-78
2023/02/03 01:58:59;;;;;;;29.05;13.43;;;;;;;0.34;67.33;99249.41;6018438;23;20046;-78
2023/02/03 02:01:29;;;;;;;25.77;12.68;;;;;;;0.48;68.14;99274.44;6042385;23;20030;-78
2023/02/03 02:03:58;;;;;;;32.15;13.45;;;;;;;0.51;68.03;99277.09;6068696;23;20230;-79
2023/02/03 02:06:25;;;;;;;31.63;14.02;;;;;;;0.37;67.96;99230.69;6067088;23;20057;-78
2023/02/03 02:08:52;;;;;;;32.83;13.00;;;;;;;0.59;67.10;99266.19;6028557;23;20103;-78
2023/02/03 02:11:20;;;;;;;33.78;13.13;;;;;;;0.48;67.94;99244.63;6027446;23;20025;-78
2023/02/03 02:13:49;;;;;;;30.85;13.18;;;;;;;0.65;68.27;99256.94;6080531;23;20029;-78
2023/02/03 02:16:46;;;;;;;30.33;13.27;;;;;;;0.80;67.95;99267.50;6066715;23;20030;-78
2023/02/03 02:19:52;;;;;;;34.25;13.35;;;;;;;0.91;68.39;99265.19;6049861;23;20084;-77
2023/02/03 02:22:59;;;;;;;30.02;12.90;;;;;;;0.95;67.95;99268.69;6042304;23;20341;-78
2023/02/03 02:25:53;;;;;;;30.55;12.77;;;;;;;0.81;67.71;99264.13;6066906;23;20051;-79
2023/02/03 02:29:03;;;;;;;27.67;11.43;;;;;;;0.62;67.27;99238.94;5994445;23;20050;-77
2023/02/03 02:31:51;;;;;;;27.63;12.68;;;;;;;0.79;67.40;99268.34;6042345;23;20149;-79
2023/02/03 02:34:21;;;;;;;32.35;13.25;;;;;;;0.73;67.46;99270.78;6044669;23;20010;-78
2023/02/03 02:37:30;;;;;;;27.50;12.27;;;;;;;0.47;67.37;99245.44;6043958;23;20418;-79
2023/02/03 02:40:17;;;;;;;32.05;13.57;;;;;;;0.53;67.52;99242.16;6042764;23;20053;-77
2023/02/03 02:42:58;;;;;;;35.90;13.25;;;;;;;0.66;67.15;99262.09;6042557;23;20023;-79
2023/02/03 02:45:47;;;;;;;30.13;14.48;;;;;;;0.57;67.42;99244.81;6042350;23;20019;-78
2023/02/03 02:48:26;;;;;;;32.95;13.45;;;;;;;0.66;67.49;99263.78;6017927;23;20054;-78
2023/02/03 02:50:56;;;;;;;31.67;13.50;;;;;;;0.68;68.25;99260.41;6066037;23;20046;-78
2023/02/03 02:53:27;;;;;;;33.20;13.77;;;;;;;0.52;67.67;99231.06;6018388;23;20014;-79
2023/02/03 02:55:56;;;;;;;34.95;14.35;;;;;;;0.62;67.60;99246.59;5993930;23;20061;-80
2023/02/03 02:58:25;;;;;;;34.67;13.30;;;;;;;0.54;67.83;99239.63;6042101;23;20449;-78
2023/02/03 03:00:51;;;;;;;33.95;13.68;;;;;;;0.46;67.95;99223.22;6041075;23;20472;-78
2023/02/03 03:03:20;;;;;;;29.20;13.00;;;;;;;0.66;67.29;99256.97;6042669;23;20127;-77
2023/02/03 03:05:58;;;;;;;32.00;13.75;;;;;;;0.68;68.28;99260.41;6017522;23;20410;-78
2023/02/03 03:08:38;;;;;;;36.45;13.70;;;;;;;0.68;67.93;99257.84;6041265;23;20102;-77
2023/02/03 03:11:04;;;;;;;32.88;13.43;;;;;;;0.47;67.18;99224.06;6068485;23;20070;-79
2023/02/03 03:13:48;;;;;;;34.08;13.43;;;;;;;0.53;68.03;99258.41;6019421;23;20504;-77
2023/02/03 03:16:19;;;;;;;33.63;13.75;;;;;;;0.52;68.25;99243.84;6068098;23;20127;-82
2023/02/03 03:18:50;;;;;;;37.80;14.32;;;;;;;0.34;67.90;99211.00;6043657;23;20022;-77
2023/02/03 03:21:24;;;;;;;33.70;14.30;;;;;;;0.44;67.56;99233.41;6067979;23;20417;-79
2023/02/03 03:23:53;;;;;;;33.97;13.73;;;;;;;0.59;67.64;99237.19;6019490;23;20062;-77
2023/02/03 03:26:26;;;;;;;32.33;14.95;;;;;;;0.67;68.32;99250.16;6043868;23;20025;-79
2023/02/03 03:29:09;;;;;;;30.88;13.57;;;;;;;0.79;67.61;99255.53;6021131;23;20029;-77
2023/02/03 03:31:37;;;;;;;31.95;13.63;;;;;;;0.69;67.99;99238.25;6067496;23;20097;-81
2023/02/03 03:34:03;;;;;;;32.00;14.00;;;;;;;0.77;67.50;99262.34;6044517;23;20110;-79
2023/02/03 03:36:37;;;;;;;35.72;14.43;;;;;;;0.70;67.93;99234.84;6044590;23;20018;-79
2023/02/03 03:39:27;;;;;;;31.85;14.52;;;;;;;0.90;68.11;99263.44;6044462;23;20026;-79
2023/02/03 03:42:08;;;;;;;33.60;13.98;;;;;;;0.91;68.58;99249.81;6089271;23;20115;-81
2023/02/03 03:44:50;;;;;;;32.92;13.80;;;;;;;0.77;67.75;99215.34;6040419;23;20043;-80
2023/02/03 03:47:20;;;;;;;;;;;;;;;1.03;67.52;99270.59;6024043;23;20101;-79
2023/02/03 03:49:47;;;;;;;34.45;13.20;;;;;;;0.58;67.61;99205.56;6069677;23;19923;-80
2023/02/03 03:52:22;;;;;;;35.13;14.82;;;;;;;0.79;67.45;99244.44;6047762;23;20018;-81
2023/02/03 03:54:50;;;;;;;35.75;14.02;;;;;;;0.77;67.40;99239.28;6069469;23;20414;-78
2023/02/03 03:57:25;;;;;;;37.33;14.75;;;;;;;0.96;68.46;99257.59;6044270;23;20417;-80
2023/02/03 03:59:53;;;;;;;36.33;14.35;;;;;;;0.94;68.41;99254.16;6043284;23;20019;-79
2023/02/03 04:02:21;;;;;;;36.80;14.18;;;;;;;1.06;67.95;99262.06;6043712;23;20051;-81
2023/02/03 04:04:50;;;;;;;35.35;14.75;;;;;;;0.75;67.58;99207.66;6068439;23;20023;-82
2023/02/03 04:07:17;;;;;;;34.72;14.27;;;;;;;0.67;67.61;99206.59;6072097;23;20022;-79
2023/02/03 04:09:43;;;;;;;35.72;14.18;;;;;;;0.54;67.90;99219.16;6049343;23;20054;-78
2023/02/03 04:12:23;;;;;;;37.75;15.82;;;;;;;0.82;68.28;99276.09;6044313;23;20011;-79
2023/02/03 04:14:48;;;;;;;38.05;15.57;;;;;;;0.65;68.17;99237.31;6067397;23;20019;-81
2023/02/03 04:17:14;;;;;;;33.30;14.63;;;;;;;0.28;68.10;99175.91;6069151;23;20062;-79
2023/02/03 04:19:40;;;;;;;37.58;15.45;;;;;;;0.87;68.74;99264.25;6043635;23;20023;-79
2023/02/03 04:22:06;;;;;;;37.10;14.88;;;;;;;1.02;68.86;99270.53;6042589;23;20030;-79
2023/02/03 04:24:32;;;;;;;41.70;14.18;;;;;;;0.92;67.63;99250.69;6069201;23;20023;-79
2023/02/03 04:26:59;;;;;;;35.47;14.82;;;;;;;1.00;68.40;99267.06;6067342;23;20029;-79
2023/02/03 04:29:24;;;;;;;40.30;15.75;;;;;;;1.04;68.54;99261.19;6071916;23;20074;-80
2023/02/03 04:31:51;;;;;;;39.17;15.35;;;;;;;0.96;67.86;99250.78;6047382;23;20015;-79
2023/02/03 04:34:17;;;;;;;40.78;15.50;;;;;;;1.07;68.53;99251.00;6071345;23;20026;-81
2023/02/03 04:36:43;;;;;;;42.88;16.00;;;;;;;1.00;68.08;99237.19;6046442;23;20018;-79
2023/02/03 04:39:09;;;;;;;38.50;14.65;;;;;;;1.19;68.58;99266.66;6071864;23;20480;-80
2023/02/03 04:41:35;;;;;;;35.50;14.57;;;;;;;1.15;68.01;99266.53;6047273;23;20027;-77
2023/02/03 04:44:01;;;;;;;37.90;15.05;;;;;;;1.11;68.43;99257.91;6024580;23;20023;-80
2023/02/03 04:46:27;;;;;;;42.55;15.38;;;;;;;0.89;68.15;99226.72;6074283;23;20018;-79
2023/02/03 04:48:53;;;;;;;36.88;14.73;;;;;;;1.05;67.70;99253.53;6048391;23;20101;-79
2023/02/03 04:51:19;;;;;;;36.85;15.13;;;;;;;0.93;67.87;99237.91;6047770;23;20019;-79
2023/02/03 04:53:45;;;;;;;39.17;16.17;;;;;;;0.91;68.33;99239.56;6050892;23;20025;-80
2023/02/03 04:56:12;;;;;;;42.45;15.93;;;;;;;0.91;67.87;99234.44;6064940;23;20022;-81
2023/02/03 04:58:38;;;;;;;37.45;15.13;;;;;;;1.11;68.48;99264.72;6064686;23;20024;-78
2023/02/03 05:01:10;;;;;;;38.33;14.38;;;;;;;0.92;68.45;99231.03;6063644;23;20046;-79
2023/02/03 05:03:37;;;;;;;34.40;14.65;;;;;;;0.71;68.43;99204.13;6089271;23;20010;-81
2023/02/03 05:06:04;;;;;;;38.40;15.45;;;;;;;1.15;68.39;99264.84;6066945;23;20042;-79
2023/02/03 05:08:30;;;;;;;39.97;15.32;;;;;;;1.05;68.05;99240.72;6043875;23;20046;-78
2023/02/03 05:10:56;;;;;;;41.92;16.15;;;;;;;1.05;68.17;99234.72;6094214;23;20030;-80
2023/02/03 05:13:22;;;;;;;36.00;14.75;;;;;;;1.08;68.91;99234.78;6069053;23;20006;-80
2023/02/03 05:15:48;;;;;;;41.25;15.82;;;;;;;0.92;68.26;99214.81;6069361;23;20026;-81
2023/02/03 05:18:20;;;;;;;40.50;15.90;;;;;;;0.67;68.71;99168.19;6089226;23;20019;-78
2023/02/03 05:20:52;;;;;;;39.22;14.45;;;;;;;1.17;68.31;99273.44;6049846;23;20022;-80
2023/02/03 05:23:21;;;;;;;37.90;15.70;;;;;;;1.13;68.41;99258.81;6034153;23;20019;-81
2023/02/03 05:25:50;;;;;;;41.03;15.10;;;;;;;1.17;68.42;99276.00;6053942;23;20514;-81
2023/02/03 05:28:19;;;;;;;41.53;15.20;;;;;;;0.88;68.32;99224.16;6048537;23;20019;-79
2023/02/03 05:30:45;;;;;;;39.55;16.25;;;;;;;0.71;68.99;99195.59;6076307;23;20018;-81
2023/02/03 05:33:11;;;;;;;42.50;15.82;;;;;;;1.19;68.65;99265.75;6086872;23;20114;-79
2023/02/03 05:35:41;;;;;;;43.13;16.25;;;;;;;1.19;68.05;99269.22;6094248;23;20026;-79
2023/02/03 05:38:07;;;;;;;41.08;16.10;;;;;;;1.19;68.42;99260.63;6060461;23;20029;-81
2023/02/03 05:43:26;;;;;;;41.10;16.65;;;;;;;1.28;68.87;99273.66;6076727;23;20019;-80
2023/02/03 05:45:54;;;;;;;42.67;16.15;;;;;;;0.95;68.40;99215.72;6078562;23;20110;-80
2023/02/03 05:48:20;;;;;;;39.08;15.50;;;;;;;1.26;67.63;99274.44;6051206;23;20019;-79
2023/02/03 05:50:46;;;;;;;42.05;16.10;;;;;;;1.28;68.57;99275.34;6049258;23;20073;-80
2023/02/03 05:53:13;;;;;;;38.65;14.57;;;;;;;1.38;68.38;99279.81;6048668;23;20019;-79
2023/02/03 05:55:41;;;;;;;39.55;16.08;;;;;;;1.33;68.77;99255.78;6002920;23;20029;-81
2023/02/03 05:58:18;;;;;;;41.22;14.40;;;;;;;1.47;68.16;99274.88;6054892;23;20015;-80
2023/02/03 06:00:47;;;;;;;42.33;15.45;;;;;;;1.43;68.58;99273.09;6057681;23;20023;-79
2023/02/03 06:03:30;;;;;;;35.03;14.25;;;;;;;0.42;67.74;99114.78;6059276;23;20042;-81
2023/02/03 06:05:57;;;;;;;40.40;15.57;;;;;;;0.94;68.89;99177.28;6082424;23;20098;-79
2023/02/03 06:08:27;;;;;;;40.92;14.93;;;;;;;1.62;68.33;99279.44;6034716;23;20019;-81
2023/02/03 06:10:58;;;;;;;38.65;14.80;;;;;;;1.53;68.51;99252.75;6037593;23;20082;-79
2023/02/03 06:13:25;;;;;;;;;;;;;;;1.54;68.47;99275.88;6063833;23;20086;-80
2023/02/03 06:15:53;;;;;;;36.25;14.75;;;;;;;1.45;68.17;99286.78;6088564;23;19938;-79
2023/02/03 06:18:20;;;;;;;38.97;15.10;;;;;;;1.45;68.11;99273.13;6040203;23;20023;-80
2023/02/03 06:20:46;;;;;;;36.40;15.07;;;;;;;1.48;68.39;99274.03;6062895;23;20018;-80
2023/02/03 06:23:12;;;;;;;39.50;14.52;;;;;;;1.29;68.62;99236.06;6061198;23;20023;-80
2023/02/03 06:25:39;;;;;;;46.42;15.95;;;;;;;1.34;68.56;99249.84;6081986;23;20095;-80
2023/02/03 06:28:05;;;;;;;40.28;15.35;;;;;;;1.36;68.66;99235.34;6032984;23;20018;-79
2023/02/03 06:30:32;;;;;;;35.80;14.43;;;;;;;1.67;68.12;99279.50;6057920;23;20041;-79
2023/02/03 06:32:57;;;;;;;40.65;16.02;;;;;;;1.68;69.03;99270.97;6087543;23;20022;-81
2023/02/03 06:35:24;;;;;;;39.90;14.90;;;;;;;1.78;68.42;99262.63;6044408;23;20017;-80
2023/02/03 06:37:50;;;;;;;38.30;15.52;;;;;;;1.79;68.19;99264.34;6041733;23;20027;-81
2023/02/03 06:40:16;;;;;;;38.88;14.68;;;;;;;1.86;68.46;99274.75;6080877;23;20022;-81
2023/02/03 06:42:50;;;;;;;40.75;15.50;;;;;;;1.88;68.50;99275.59;6052832;23;20026;-80
2023/02/03 06:45:17;;;;;;;38.78;14.25;;;;;;;1.25;68.65;99172.72;6055888;23;20027;-79
2023/02/03 06:47:44;;;;;;;39.70;16.88;;;;;;;1.65;68.53;99242.72;6081291;23;20081;-79
2023/02/03 06:50:13;;;;;;;40.50;15.18;;;;;;;1.94;68.08;99275.72;6058064;23;20104;-81
2023/02/03 06:52:40;;;;;;;41.63;14.98;;;;;;;2.00;68.37;99278.41;6084389;23;20439;-80
2023/02/03 06:55:12;;;;;;;39.60;14.30;;;;;;;1.85;68.49;99252.47;6056305;23;20106;-81
2023/02/03 06:57:44;;;;;;;38.85;14.85;;;;;;;2.02;68.37;99261.34;6057609;23;20022;-81
2023/02/03 07:00:14;;;;;;;36.58;13.70;;;;;;;2.14;68.42;99281.22;6062578;23;20022;-80
2023/02/03 07:02:40;;;;;;;38.20;13.30;;;;;;;2.08;68.37;99264.00;6081729;23;20019;-81
2023/02/03 07:05:07;;;;;;;38.83;14.80;;;;;;;2.24;68.39;99277.09;6057131;23;20408;-79
2023/02/03 07:07:34;;;;;;;35.22;13.50;;;;;;;2.29;68.39;99279.72;6033485;23;20019;-82
2023/02/03 07:10:01;;;;;;;36.03;15.07;;;;;;;2.23;68.10;99259.97;6008194;23;20686;-80
2023/02/03 07:12:30;;;;;;;40.22;14.93;;;;;;;2.38;68.37;99283.31;6055093;23;20341;-80
2023/02/03 07:14:56;;;;;;;34.80;13.55;;;;;;;2.14;68.26;99239.25;6056715;23;20088;-79
2023/02/03 07:17:23;;;;;;;31.65;13.45;;;;;;;2.39;68.02;99289.31;6059273;23;20058;-80
2023/02/03 07:19:49;;;;;;;33.63;13.82;;;;;;;2.06;68.53;99211.78;6055073;23;20018;-81
2023/02/03 07:22:15;;;;;;;32.15;13.02;;;;;;;2.55;68.03;99286.16;6053026;23;20025;-80
2023/02/03 07:24:41;;;;;;;38.20;13.27;;;;;;;2.56;68.13;99281.84;6029370;23;20083;-81
2023/02/03 07:27:08;;;;;;;32.55;12.52;;;;;;;2.49;68.01;99286.03;6054988;23;20422;-80
2023/02/03 07:29:34;;;;;;;29.27;12.70;;;;;;;2.26;67.82;99260.88;6031993;23;20026;-79
2023/02/03 07:32:01;;;;;;;28.27;11.80;;;;;;;2.25;67.66;99243.72;6037251;23;20026;-83
2023/02/03 07:34:28;;;;;;;30.15;12.05;;;;;;;2.18;67.97;99221.38;6083923;23;20014;-80
2023/02/03 07:36:55;;;;;;;30.90;11.45;;;;;;;2.61;68.13;99263.97;6085119;23;20018;-80
2023/02/03 07:39:22;;;;;;;25.73;11.20;;;;;;;2.61;67.69;99269.09;6054820;23;20022;-79
2023/02/03 07:41:51;;;;;;;29.65;11.82;;;;;;;2.51;67.67;99239.84;6056095;23;20057;-80
2023/02/03 07:44:20;;;;;;;31.73;11.95;;;;;;;2.50;67.30;99243.25;6085705;23;20099;-80
2023/02/03 07:46:47;;;;;;;23.63;11.45;;;;;;;2.40;67.53;99232.84;6094795;23;20003;-82
2023/02/03 07:49:15;;;;;;;27.00;12.05;;;;;;;2.68;67.45;99265.75;6089937;23;20022;-81
2023/02/03 07:54:35;;;;;;;26.40;10.77;;;;;;;2.53;67.58;99213.34;6036504;23;20109;-81
2023/02/03 07:57:02;;;;;;;24.92;10.48;;;;;;;2.47;67.35;99190.13;6084632;23;20029;-80
2023/02/03 07:59:28;;;;;;;28.83;11.52;;;;;;;2.69;66.88;99226.38;6086546;23;20018;-80
2023/02/03 08:01:55;;;;;;;29.00;11.80;;;;;;;2.72;67.14;99239.28;6066198;23;20039;-83
2023/02/03 08:04:22;;;;;;;27.02;11.25;;;;;;;2.77;67.11;99277.88;6065319;23;20022;-82
2023/02/03 08:06:48;;;;;;;28.60;11.02;;;;;;;2.51;67.77;99222.72;6057127;23;20046;-80
2023/02/03 08:09:15;;;;;;;30.05;11.68;;;;;;;2.60;67.40;99231.41;6034263;23;20022;-78
2023/02/03 08:11:42;;;;;;;27.98;12.20;;;;;;;2.35;67.42;99192.53;6057526;23;20109;-80
2023/02/03 08:14:08;;;;;;;28.23;11.57;;;;;;;2.82;67.71;99286.53;6060504;23;20030;-81
2023/02/03 08:16:36;;;;;;;27.77;10.90;;;;;;;2.72;67.21;99277.81;6061787;23;20040;-80
2023/02/03 08:19:02;;;;;;;28.15;11.55;;;;;;;2.66;67.38;99259.75;6038700;23;20504;-79
2023/02/03 08:21:28;;;;;;;30.05;12.13;;;;;;;2.32;67.73;99210.44;6079209;23;20334;-80
2023/02/03 08:23:54;;;;;;;29.38;11.95;;;;;;;2.60;67.65;99242.53;6082115;23;20093;-80
2023/02/03 08:26:21;;;;;;;31.55;12.57;;;;;;;2.45;67.75;99219.22;6049736;23;20113;-78
2023/02/03 08:28:48;;;;;;;30.67;12.68;;;;;;;2.83;68.08;99263.44;6051098;23;20121;-81
2023/02/03 08:31:16;;;;;;;29.05;11.52;;;;;;;2.86;67.66;99263.47;6059126;23;20019;-78
2023/02/03 08:33:42;;;;;;;29.75;12.15;;;;;;;2.76;67.79;99251.34;6030943;23;20058;-80
2023/02/03 08:36:10;;;;;;;30.98;11.48;;;;;;;2.78;67.64;99265.06;6053485;23;20023;-79
2023/02/03 08:38:36;;;;;;;28.98;11.45;;;;;;;2.44;68.40;99202.06;6079603;23;20113;-79
2023/02/03 08:41:15;;;;;;;31.33;12.73;;;;;;;2.75;67.47;99243.63;6032191;23;20027;-80
2023/02/03 08:43:41;;;;;;;33.95;13.63;;;;;;;2.60;67.60;99210.84;6078709;23;20019;-81
2023/02/03 08:46:09;;;;;;;32.72;13.35;;;;;;;2.81;67.27;99244.56;6030701;23;20141;-81
2023/02/03 08:48:37;;;;;;;32.20;13.38;;;;;;;2.94;67.93;99255.88;6081414;23;20015;-81
2023/02/03 08:51:11;;;;;;;34.53;14.15;;;;;;;2.76;68.04;99209.38;6061331;23;20476;-79
2023/02/03 08:53:38;;;;;;;34.47;13.93;;;;;;;3.02;68.05;99253.41;6084579;23;20014;-81
2023/02/03 08:56:09;;;;;;;33.10;13.70;;;;;;;3.13;67.66;99258.69;6039431;23;20047;-82
2023/02/03 08:58:36;;;;;;;27.20;12.50;;;;;;;2.60;67.77;99155.19;6043071;23;20025;-82
2023/02/03 09:01:14;;;;;;;31.60;12.70;;;;;;;3.15;67.86;99246.72;6068314;23;20003;-81
2023/02/03 09:03:40;;;;;;;30.15;12.82;;;;;;;3.08;67.59;99220.06;6088559;23;20050;-80
2023/02/03 09:06:08;;;;;;;32.80;14.68;;;;;;;3.33;67.85;99234.91;6032437;23;20330;-81
2023/02/03 09:08:34;;;;;;;31.85;13.25;;;;;;;3.33;67.66;99228.03;6054314;23;20018;-83
2023/02/03 09:11:01;;;;;;;28.75;13.13;;;;;;;3.49;67.19;99236.78;6082930;23;20047;-81
2023/02/03 09:13:27;;;;;;;27.58;13.15;;;;;;;3.43;67.42;99206.72;6079744;23;20019;-82
2023/02/03 09:15:53;;;;;;;27.00;13.43;;;;;;;3.70;67.12;99237.88;6057138;23;20029;-80
2023/02/03 09:18:20;;;;;;;26.75;11.95;;;;;;;3.50;66.24;99207.66;6057419;23;20094;-81
2023/02/03 09:20:49;;;;;;;32.25;15.80;;;;;;;3.66;66.65;99243.81;6074715;23;20022;-80
2023/02/03 09:23:18;;;;;;;37.00;15.77;;;;;;;3.55;66.46;99244.59;6053715;23;20019;-81
2023/02/03 09:25:44;;;;;;;31.80;14.20;;;;;;;3.19;66.82;99173.91;6056657;23;20047;-81
2023/02/03 09:28:11;;;;;;;30.42;14.38;;;;;;;3.65;66.81;99226.66;6089362;23;20006;-81
2023/02/03 09:30:38;;;;;;;24.42;11.38;;;;;;;3.59;66.91;99235.19;6066517;23;20034;-79
2023/02/03 09:33:04;;;;;;;26.70;10.50;;;;;;;2.54;66.25;99065.19;6077815;23;20180;-81
2023/02/03 09:35:53;;;;;;;26.10;11.23;;;;;;;2.95;66.56;99153.91;6046034;23;20018;-80
2023/02/03 09:38:26;;;;;;;22.95;10.40;;;;;;;2.53;67.05;99084.06;6010807;23;20477;-82
2023/02/03 09:41:24;;;;;;;25.55;11.27;;;;;;;3.57;66.69;99242.00;5994787;23;20027;-79
2023/02/03 09:43:56;;;;;;;24.33;11.00;;;;;;;3.67;67.07;99249.00;6057972;23;20054;-83
2023/02/03 09:46:47;;;;;;;21.80;10.40;;;;;;;2.59;67.17;99063.56;6045381;23;20018;-82
2023/02/03 09:49:20;;;;;;;20.17;9.20;;;;;;;3.16;66.60;99145.59;6019049;23;20023;-81
2023/02/03 09:52:11;;;;;;;22.50;9.73;;;;;;;3.50;66.89;99175.94;6052774;23;20111;-80
2023/02/03 09:54:58;;;;;;;24.58;10.43;;;;;;;3.92;66.71;99244.94;6047453;23;20019;-79
2023/02/03 09:57:27;;;;;;;20.33;9.95;;;;;;;3.12;66.19;99125.81;6025225;23;20022;-82
2023/02/03 09:59:56;;;;;;;20.02;9.68;;;;;;;3.52;66.48;99182.81;6050699;23;20018;-81
2023/02/03 10:02:46;;;;;;;20.65;9.50;;;;;;;4.06;66.77;99241.66;6030759;23;20074;-82
2023/02/03 10:05:33;;;;;;;20.42;9.20;;;;;;;4.02;65.61;99245.03;6049650;23;20019;-81
2023/02/03 10:08:41;;;;;;;26.10;10.60;;;;;;;3.99;66.02;99242.44;6024038;23;20018;-79
2023/02/03 10:11:40;;;;;;;18.38;8.63;;;;;;;3.95;65.58;99238.97;6056758;23;20038;-80
2023/02/03 10:14:21;;;;;;;16.52;8.23;;;;;;;3.87;66.20;99236.31;6069443;23;20060;-82
2023/02/03 10:17:29;;;;;;;22.25;9.48;;;;;;;3.93;65.96;99238.09;6049471;23;20028;-79
2023/02/03 10:20:10;;;;;;;16.35;8.32;;;;;;;3.91;66.26;99237.22;6076516;23;20011;-79
2023/02/03 10:22:44;;;;;;;16.67;8.73;;;;;;;3.87;66.16;99238.03;6053000;23;20023;-79
2023/02/03 10:25:17;;;;;;;18.35;8.85;;;;;;;3.97;65.15;99238.97;6050501;23;20022;-81
2023/02/03 10:28:11;;;;;;;17.85;8.77;;;;;;;3.90;65.81;99246.63;6025958;23;20042;-81
2023/02/03 10:31:17;;;;;;;;;;;;;;;;;;;;;
2023/02/03 10:38:59;;;;;;;18.35;8.10;;;;;;;3.93;65.54;99245.81;6081486;23;20026;-79
2023/02/03 10:41:28;;;;;;;17.02;8.70;;;;;;;3.87;65.14;99233.72;5989693;23;20023;-80
2023/02/03 10:43:54;;;;;;;18.67;8.88;;;;;;;3.83;64.89;99218.25;6009156;23;20470;-81
2023/02/03 10:46:28;;;;;;;17.67;8.60;;;;;;;3.96;65.32;99238.13;6031203;23;20019;-79
2023/02/03 10:48:55;;;;;;;16.48;7.78;;;;;;;3.85;64.63;99212.28;6010833;23;20026;-79
2023/02/03 10:51:30;;;;;;;15.35;7.68;;;;;;;3.96;64.60;99232.97;6038852;23;20034;-80
2023/02/03 10:53:59;;;;;;;18.88;8.75;;;;;;;3.84;64.48;99189.97;6046311;23;20023;-80
2023/02/03 10:56:31;;;;;;;18.33;8.13;;;;;;;3.69;64.33;99143.50;6060169;23;20024;-79
2023/02/03 10:58:59;;;;;;;16.90;8.40;;;;;;;4.31;63.47;99222.09;6004805;23;20022;-79
2023/02/03 11:01:43;;;;;;;18.25;8.82;;;;;;;4.37;64.12;99216.13;6040482;23;20094;-79
2023/02/03 11:04:28;;;;;;;16.75;7.82;;;;;;;4.47;63.94;99223.06;6046587;23;20071;-82
2023/02/03 11:07:05;;;;;;;18.30;7.88;;;;;;;4.45;62.81;99208.44;6037017;23;20030;-79
2023/02/03 11:09:39;;;;;;;14.98;7.57;;;;;;;4.56;63.68;99205.91;5984867;23;20034;-81
2023/02/03 11:12:17;;;;;;;14.77;7.75;;;;;;;4.44;63.16;99173.22;6039909;23;20399;-79
2023/02/03 11:14:49;;;;;;;14.48;7.75;;;;;;;4.59;62.93;99211.09;6043857;23;20019;-79
2023/02/03 11:17:28;;;;;;;15.27;8.07;;;;;;;4.62;63.07;99198.25;6017269;23;20045;-80
2023/02/03 11:20:03;;;;;;;14.20;6.72;;;;;;;4.66;62.68;99223.19;6042934;23;20015;-81
2023/02/03 11:22:34;;;;;;;15.18;7.10;;;;;;;4.46;62.19;99174.09;6042587;23;20042;-81
2023/02/03 11:25:25;;;;;;;16.15;7.63;;;;;;;4.15;62.13;99123.25;6043260;23;20114;-81
2023/02/03 11:27:53;;;;;;;14.77;6.53;;;;;;;4.76;61.74;99213.78;6047448;23;20022;-81
2023/02/03 11:30:28;;;;;;;14.82;6.88;;;;;;;4.72;61.89;99212.91;6046068;23;20101;-82
2023/02/03 11:32:55;;;;;;;16.98;8.10;;;;;;;4.72;61.46;99215.50;6030826;23;20014;-80
2023/02/03 11:35:24;;;;;;;12.88;6.82;;;;;;;4.76;61.26;99214.63;6049899;23;20033;-81
2023/02/03 11:37:56;;;;;;;13.35;6.40;;;;;;;4.11;61.15;99108.63;6025427;23;20023;-80
2023/02/03 11:40:31;;;;;;;11.80;6.72;;;;;;;4.51;61.28;99180.13;6062849;23;20026;-82
2023/02/03 11:42:59;;;;;;;13.45;6.75;;;;;;;4.78;61.41;99212.06;6072001;23;20015;-80
2023/02/03 11:45:28;;;;;;;12.02;6.65;;;;;;;4.83;60.84;99216.41;6048146;23;20026;-82
2023/02/03 11:48:00;;;;;;;16.38;7.35;;;;;;;4.89;60.85;99212.97;6048605;23;20022;-79
2023/02/03 11:50:40;;;;;;;12.27;7.05;;;;;;;4.82;60.82;99212.09;6074454;23;20018;-83
2023/02/03 11:53:09;;;;;;;12.85;6.88;;;;;;;4.76;60.89;99209.47;6075868;23;20019;-80
2023/02/03 11:55:47;;;;;;;11.77;6.18;;;;;;;4.71;60.49;99208.59;6075278;23;20022;-81
2023/02/03 11:58:28;;;;;;;11.95;6.50;;;;;;;4.67;59.75;99212.88;6027592;23;20074;-80